Time;durP1;ratioP1;P1;durP2;ratioP2;P2;SDS_P1;SDS_P2;PMS_P1;PMS_P2;Temp;Humidity;BMP_temperature;BMP_pressure;BME280_temperature;BME280_humidity;BME280_pressure;Samples;Min_cycle;Max_cycle;Signal;HPM_P1;HPM_P2
2022/09/14 00:02:23;;;;;;;6.43;2.30;;;12.40;99.90;;;;;;5112703;27;20055;-65
2022/09/14 00:04:50;;;;;;;4.05;2.17;;;12.40;99.90;;;;;;5105656;28;20105;-68
2022/09/14 00:07:16;;;;;;;5.00;2.50;;;12.40;99.90;;;;;;5104171;28;20032;-67
2022/09/14 00:09:42;;;;;;;6.65;2.47;;;12.40;99.90;;;;;;5108479;27;20043;-66
2022/09/14 00:12:09;;;;;;;4.15;2.40;;;12.40;99.90;;;;;;5105532;28;21065;-65
2022/09/14 00:14:35;;;;;;;7.13;2.70;;;12.30;99.90;;;;;;5101931;28;20039;-67
2022/09/14 00:17:00;;;;;;;4.75;2.80;;;12.30;99.90;;;;;;5104028;27;20043;-64
2022/09/14 00:19:26;;;;;;;6.25;2.58;;;12.40;99.90;;;;;;5106132;28;20040;-67
2022/09/14 00:21:55;;;;;;;6.82;2.83;;;12.40;99.90;;;;;;5107163;28;20366;-63
2022/09/14 00:24:22;;;;;;;5.85;2.90;;;12.40;99.90;;;;;;5102813;28;20047;-66
2022/09/14 00:26:48;;;;;;;4.45;2.63;;;12.40;99.90;;;;;;5088452;28;20033;-66
2022/09/14 00:29:14;;;;;;;5.68;2.90;;;12.40;99.90;;;;;;5108435;28;20059;-64
2022/09/14 00:31:40;;;;;;;6.45;2.70;;;12.40;99.90;;;;;;5106893;28;20024;-65
2022/09/14 00:34:08;;;;;;;3.72;2.45;;;12.40;99.90;;;;;;5108965;28;20382;-66
2022/09/14 00:36:38;;;;;;;5.18;2.53;;;12.40;99.90;;;;;;5104117;28;20043;-64
2022/09/14 00:39:04;;;;;;;7.55;2.83;;;12.30;99.90;;;;;;5100744;28;20934;-64
2022/09/14 00:41:33;;;;;;;3.65;2.58;;;12.30;99.90;;;;;;5102815;28;20043;-66
2022/09/14 00:44:03;;;;;;;4.07;2.55;;;12.30;99.90;;;;;;5105895;28;20046;-66
2022/09/14 00:46:34;;;;;;;4.53;2.70;;;12.30;99.90;;;;;;5113925;28;20044;-64
2022/09/14 00:49:01;;;;;;;4.38;2.65;;;12.30;99.90;;;;;;5108243;28;20093;-66
2022/09/14 00:51:31;;;;;;;3.55;2.70;;;12.30;99.90;;;;;;5107168;28;20039;-66
2022/09/14 00:53:59;;;;;;;4.32;2.88;;;12.30;99.90;;;;;;5119852;28;20043;-67
2022/09/14 00:56:25;;;;;;;5.60;2.92;;;12.30;99.90;;;;;;5104845;28;20051;-65
2022/09/14 00:58:53;;;;;;;4.22;2.78;;;12.30;99.90;;;;;;5106539;28;20044;-66
2022/09/14 01:01:19;;;;;;;5.60;2.88;;;12.30;99.90;;;;;;5106054;28;20058;-65
2022/09/14 01:03:45;;;;;;;4.15;3.08;;;12.30;99.90;;;;;;5104443;28;20040;-65
2022/09/14 01:06:30;;;;;;;5.00;2.70;;;12.30;99.90;;;;;;5102455;28;20516;-66
2022/09/14 01:09:11;;;;;;;5.20;2.60;;;12.30;99.90;;;;;;5105994;28;20118;-67
2022/09/14 01:11:45;;;;;;;4.68;2.85;;;12.30;99.90;;;;;;5105142;28;20038;-67
2022/09/14 01:14:38;;;;;;;3.83;2.72;;;12.20;99.90;;;;;;5097390;28;20047;-67
2022/09/14 01:17:31;;;;;;;6.85;3.05;;;12.30;99.90;;;;;;4993010;28;20277;-66
2022/09/14 01:20:15;;;;;;;5.55;2.75;;;12.20;99.90;;;;;;4991485;28;20046;-63
2022/09/14 01:22:49;;;;;;;6.78;2.80;;;12.20;99.90;;;;;;5012298;28;20057;-67
2022/09/14 01:25:40;;;;;;;4.70;3.03;;;12.20;99.90;;;;;;5009286;28;20514;-67
2022/09/14 01:28:21;;;;;;;5.28;2.78;;;12.20;99.90;;;;;;4989999;28;20061;-66
2022/09/14 01:30:52;;;;;;;3.17;2.70;;;12.10;99.90;;;;;;5021665;28;20053;-66
2022/09/14 01:33:24;;;;;;;4.22;3.05;;;12.10;99.90;;;;;;5008106;28;20046;-65
2022/09/14 01:35:56;;;;;;;7.45;3.10;;;12.10;99.90;;;;;;5012066;28;20049;-65
2022/09/14 01:38:40;;;;;;;5.45;3.10;;;12.10;99.90;;;;;;5011228;28;20040;-65
2022/09/14 01:41:10;;;;;;;5.13;3.08;;;12.10;99.90;;;;;;5038690;28;20056;-67
2022/09/14 01:43:39;;;;;;;5.55;3.13;;;12.00;99.90;;;;;;5006471;28;20397;-66
2022/09/14 01:46:16;;;;;;;4.78;3.05;;;12.00;99.90;;;;;;5008922;28;20408;-66
2022/09/14 01:48:53;;;;;;;5.10;3.20;;;12.00;99.90;;;;;;5009053;28;20064;-65
2022/09/14 01:51:25;;;;;;;4.47;3.45;;;12.00;99.90;;;;;;5012834;28;20049;-66
2022/09/14 01:54:00;;;;;;;5.63;3.60;;;12.00;99.90;;;;;;5064626;27;20048;-64
2022/09/14 01:56:39;;;;;;;7.50;3.40;;;12.00;99.90;;;;;;5104741;28;20131;-67
2022/09/14 01:59:12;;;;;;;6.15;3.60;;;11.90;99.90;;;;;;5113120;27;20520;-65
2022/09/14 02:01:43;;;;;;;;;;;11.90;99.90;;;;;;5107129;28;20497;-64
2022/09/14 02:04:14;;;;;;;4.40;2.97;;;11.90;99.90;;;;;;5087248;28;19927;-64
2022/09/14 02:06:44;;;;;;;35.72;4.65;;;11.90;99.90;;;;;;5119730;27;20131;-65
2022/09/14 02:09:15;;;;;;;5.85;3.58;;;11.90;99.90;;;;;;5122794;27;20096;-67
2022/09/14 02:11:41;;;;;;;7.10;3.60;;;11.90;99.90;;;;;;5107097;27;20035;-67
2022/09/14 02:14:06;;;;;;;6.03;3.33;;;11.90;99.90;;;;;;5090815;28;20052;-64
2022/09/14 02:16:33;;;;;;;5.38;3.80;;;11.90;99.90;;;;;;5113740;27;20043;-67
2022/09/14 02:19:00;;;;;;;3.90;3.50;;;11.90;99.90;;;;;;5105529;27;20055;-64
2022/09/14 02:21:29;;;;;;;4.53;3.47;;;11.80;99.90;;;;;;5108799;27;20402;-66
2022/09/14 02:23:55;;;;;;;5.30;3.47;;;11.90;99.90;;;;;;5108066;28;20107;-67
2022/09/14 02:26:22;;;;;;;6.57;3.60;;;11.90;99.90;;;;;;5110903;27;20035;-66
2022/09/14 02:28:48;;;;;;;5.88;3.50;;;11.90;99.90;;;;;;5110180;28;20067;-67
2022/09/14 02:31:20;;;;;;;4.80;3.75;;;11.90;99.90;;;;;;5110488;27;20058;-65
2022/09/14 02:34:09;;;;;;;6.65;4.00;;;11.90;99.90;;;;;;5104406;28;20105;-65
2022/09/14 02:36:59;;;;;;;6.55;3.85;;;11.90;99.90;;;;;;5106517;27;20482;-66
2022/09/14 02:39:49;;;;;;;4.85;3.78;;;11.90;99.90;;;;;;5109046;27;20047;-65
2022/09/14 02:42:51;;;;;;;3.75;3.38;;;11.90;99.90;;;;;;5102103;28;20063;-66
2022/09/14 02:45:47;;;;;;;5.28;3.80;;;11.90;99.90;;;;;;5106700;28;20047;-66
2022/09/14 02:48:23;;;;;;;6.32;3.85;;;12.00;99.90;;;;;;5104973;28;20043;-65
2022/09/14 02:51:06;;;;;;;5.18;4.65;;;11.90;99.90;;;;;;5117108;27;20505;-66
2022/09/14 02:53:56;;;;;;;14.75;4.45;;;12.00;99.90;;;;;;5107526;28;20039;-66
2022/09/14 02:56:24;;;;;;;7.55;3.80;;;12.00;99.90;;;;;;5092050;28;20089;-67
2022/09/14 02:58:50;;;;;;;5.30;3.97;;;11.90;99.90;;;;;;5104923;28;20050;-67
2022/09/14 03:01:19;;;;;;;5.43;3.85;;;11.90;99.90;;;;;;5093205;28;20048;-65
2022/09/14 03:03:45;;;;;;;8.63;3.88;;;11.90;99.90;;;;;;5105947;27;20039;-66
2022/09/14 03:06:11;;;;;;;4.90;3.90;;;12.00;99.90;;;;;;5099747;28;20041;-67
2022/09/14 03:08:37;;;;;;;6.15;4.00;;;12.00;99.90;;;;;;5108716;28;20076;-68
2022/09/14 03:11:04;;;;;;;7.95;4.00;;;12.00;99.90;;;;;;5089683;28;20092;-65
2022/09/14 03:13:29;;;;;;;6.72;3.40;;;12.00;99.90;;;;;;5123052;27;20047;-64
2022/09/14 03:15:55;;;;;;;5.18;3.58;;;12.00;99.90;;;;;;5107108;28;20024;-64
2022/09/14 03:18:20;;;;;;;4.75;3.70;;;12.00;99.90;;;;;;5105238;27;20134;-66
2022/09/14 03:20:46;;;;;;;6.22;3.72;;;11.90;99.90;;;;;;5120082;27;20051;-65
2022/09/14 03:23:13;;;;;;;4.43;3.60;;;11.90;99.90;;;;;;5112770;27;20043;-65
2022/09/14 03:25:41;;;;;;;4.90;3.45;;;11.90;99.90;;;;;;5106272;28;20047;-64
2022/09/14 03:28:08;;;;;;;6.35;3.20;;;12.00;99.90;;;;;;5114822;27;20047;-64
2022/09/14 03:30:34;;;;;;;4.35;3.80;;;11.90;99.90;;;;;;5102534;28;20089;-67
2022/09/14 03:33:00;;;;;;;6.75;3.90;;;12.00;99.90;;;;;;5124152;27;20122;-65
2022/09/14 03:35:30;;;;;;;8.55;3.90;;;12.00;99.90;;;;;;5098760;28;20047;-65
2022/09/14 03:37:56;;;;;;;5.90;3.85;;;12.00;99.90;;;;;;5106808;28;20112;-65
2022/09/14 03:40:22;;;;;;;4.25;3.80;;;12.00;99.90;;;;;;5107410;28;20082;-65
2022/09/14 03:42:50;;;;;;;6.15;3.85;;;12.00;99.90;;;;;;5108649;28;20043;-65
2022/09/14 03:45:17;;;;;;;5.75;3.85;;;12.00;99.90;;;;;;5112510;27;20116;-66
2022/09/14 03:47:43;;;;;;;7.45;3.67;;;12.00;99.90;;;;;;5104874;27;20054;-66
2022/09/14 03:50:11;;;;;;;4.70;3.85;;;12.00;99.90;;;;;;5106498;28;20485;-66
2022/09/14 03:52:37;;;;;;;6.38;3.80;;;12.00;99.90;;;;;;5094672;28;20379;-66
2022/09/14 03:55:06;;;;;;;6.43;3.90;;;11.90;99.90;;;;;;5098425;28;20051;-65
2022/09/14 03:57:32;;;;;;;5.93;4.10;;;12.00;99.90;;;;;;5107000;28;20561;-66
2022/09/14 03:59:58;;;;;;;6.25;3.92;;;12.00;99.90;;;;;;5102169;27;20040;-67
2022/09/14 04:02:24;;;;;;;9.55;4.75;;;11.90;99.90;;;;;;5107350;28;20077;-66
2022/09/14 04:04:50;;;;;;;5.78;4.50;;;12.00;99.90;;;;;;5111341;27;20043;-64
2022/09/14 04:07:16;;;;;;;5.05;3.90;;;11.90;99.90;;;;;;5104944;28;20364;-65
2022/09/14 04:09:42;;;;;;;6.20;4.18;;;11.90;99.90;;;;;;5118925;27;20374;-66
2022/09/14 04:12:08;;;;;;;7.22;4.13;;;11.90;99.90;;;;;;5118423;27;20480;-66
2022/09/14 04:14:34;;;;;;;12.63;4.90;;;11.90;99.90;;;;;;5103898;28;20039;-65
2022/09/14 04:16:59;;;;;;;7.60;4.25;;;11.90;99.90;;;;;;5106321;28;20058;-67
2022/09/14 04:19:25;;;;;;;4.53;4.03;;;12.00;99.90;;;;;;5105570;28;20043;-66
2022/09/14 04:21:50;;;;;;;7.28;4.30;;;12.00;99.90;;;;;;5105683;28;20418;-65
2022/09/14 04:24:16;;;;;;;5.78;4.75;;;12.00;99.90;;;;;;5107265;28;20040;-66
2022/09/14 04:26:43;;;;;;;7.38;4.53;;;12.00;99.90;;;;;;5089072;28;20121;-66
2022/09/14 04:29:10;;;;;;;6.15;4.22;;;12.00;99.90;;;;;;5108536;28;20398;-65
2022/09/14 04:31:36;;;;;;;5.22;4.30;;;12.00;99.90;;;;;;5102366;28;20066;-66
2022/09/14 04:34:01;;;;;;;6.63;3.97;;;12.00;99.90;;;;;;5099712;28;20071;-64
2022/09/14 04:36:29;;;;;;;4.63;4.13;;;12.10;99.90;;;;;;5108552;28;20053;-64
2022/09/14 04:39:00;;;;;;;5.82;3.90;;;12.10;99.90;;;;;;5121046;28;20118;-66
2022/09/14 04:41:27;;;;;;;6.10;4.35;;;12.10;99.90;;;;;;5104871;28;20036;-65
2022/09/14 04:43:54;;;;;;;5.70;3.80;;;12.10;99.90;;;;;;5110251;28;20485;-64
2022/09/14 04:46:23;;;;;;;5.82;3.95;;;12.10;99.90;;;;;;5085767;28;20050;-65
2022/09/14 04:48:50;;;;;;;6.00;4.13;;;12.20;99.90;;;;;;5113444;28;20086;-64
2022/09/14 04:51:19;;;;;;;6.03;4.00;;;12.20;99.90;;;;;;5103290;28;20050;-64
2022/09/14 04:53:48;;;;;;;6.70;4.10;;;12.20;99.90;;;;;;5106438;28;20046;-64
2022/09/14 04:56:14;;;;;;;8.93;4.30;;;12.20;99.90;;;;;;5103348;28;20109;-66
2022/09/14 04:58:48;;;;;;;5.05;4.53;;;12.30;99.90;;;;;;5102110;28;20051;-67
2022/09/14 05:01:16;;;;;;;7.93;4.20;;;12.30;99.90;;;;;;5109086;28;20036;-66
2022/09/14 05:03:42;;;;;;;4.95;3.85;;;12.30;99.90;;;;;;5111074;28;20051;-67
2022/09/14 05:06:14;;;;;;;4.35;3.70;;;12.30;99.90;;;;;;5091393;28;20036;-66
2022/09/14 05:08:40;;;;;;;8.10;3.97;;;12.30;99.90;;;;;;5092640;28;20470;-66
2022/09/14 05:11:07;;;;;;;4.95;3.72;;;12.30;99.90;;;;;;5104722;28;20062;-66
2022/09/14 05:13:33;;;;;;;6.35;3.85;;;12.40;99.90;;;;;;5106991;28;20431;-66
2022/09/14 05:16:12;;;;;;;8.10;3.83;;;12.40;99.90;;;;;;5105384;28;20054;-65
2022/09/14 05:18:38;;;;;;;7.85;4.03;;;12.40;99.90;;;;;;5119572;27;20083;-66
2022/09/14 05:21:06;;;;;;;6.07;4.07;;;12.50;99.90;;;;;;5102288;28;20971;-67
2022/09/14 05:23:32;;;;;;;4.93;4.05;;;12.50;99.90;;;;;;5107611;28;20035;-66
2022/09/14 05:25:59;;;;;;;6.28;3.95;;;12.50;99.90;;;;;;5104865;28;20440;-66
2022/09/14 05:28:25;;;;;;;4.82;4.22;;;12.50;99.90;;;;;;5108343;27;20541;-64
2022/09/14 05:30:51;;;;;;;5.68;4.10;;;12.50;99.90;;;;;;5101390;28;20503;-64
2022/09/14 05:33:17;;;;;;;8.50;4.00;;;12.50;99.90;;;;;;5100244;27;20043;-65
2022/09/14 05:35:43;;;;;;;6.97;4.05;;;12.50;99.90;;;;;;5111954;28;20080;-66
2022/09/14 05:38:09;;;;;;;5.85;3.90;;;12.50;99.90;;;;;;5091916;28;20051;-64
2022/09/14 05:40:35;;;;;;;4.93;4.05;;;12.50;99.90;;;;;;5108997;28;20047;-67
2022/09/14 05:43:00;;;;;;;9.63;3.80;;;12.50;99.90;;;;;;5108139;27;20047;-67
2022/09/14 05:45:26;;;;;;;10.85;4.50;;;12.60;99.90;;;;;;5110005;27;20066;-67
2022/09/14 05:47:52;;;;;;;7.30;4.40;;;12.60;99.90;;;;;;5111247;28;20042;-65
2022/09/14 05:50:17;;;;;;;7.07;4.20;;;12.60;99.90;;;;;;5128983;27;20043;-67
2022/09/14 05:52:43;;;;;;;8.70;4.13;;;12.60;99.90;;;;;;5126882;27;20615;-66
2022/09/14 05:55:09;;;;;;;10.05;4.63;;;12.70;99.90;;;;;;5111065;28;20051;-66
2022/09/14 05:57:35;;;;;;;7.57;4.38;;;12.70;99.90;;;;;;5111505;28;20047;-65
2022/09/14 06:00:00;;;;;;;10.68;4.50;;;12.70;99.90;;;;;;5107700;28;20583;-67
2022/09/14 06:02:26;;;;;;;5.82;4.10;;;12.70;99.90;;;;;;5130013;27;20046;-65
2022/09/14 06:04:52;;;;;;;7.93;3.95;;;12.80;99.90;;;;;;5111438;27;20052;-67
2022/09/14 06:07:17;;;;;;;9.85;4.18;;;12.80;99.90;;;;;;5131282;27;20045;-66
2022/09/14 06:09:43;;;;;;;8.52;3.60;;;12.80;99.90;;;;;;5122391;27;20032;-66
2022/09/14 06:12:08;;;;;;;13.85;4.00;;;12.80;99.90;;;;;;5126479;27;20047;-66
2022/09/14 06:14:34;;;;;;;7.20;4.25;;;12.80;99.90;;;;;;5120305;27;20074;-65
2022/09/14 06:17:00;;;;;;;10.18;4.20;;;12.90;99.90;;;;;;5131077;27;20039;-68
2022/09/14 06:19:25;;;;;;;7.40;4.20;;;12.90;99.90;;;;;;5126369;27;20027;-66
2022/09/14 06:21:51;;;;;;;7.55;4.10;;;12.90;99.90;;;;;;5128131;27;20038;-67
2022/09/14 06:24:17;;;;;;;7.68;4.38;;;12.90;99.90;;;;;;5127858;27;20046;-67
2022/09/14 06:26:42;;;;;;;4.80;3.63;;;13.00;99.90;;;;;;5108930;28;20107;-66
2022/09/14 06:29:08;;;;;;;5.38;4.00;;;13.00;99.90;;;;;;5117788;27;20457;-65
2022/09/14 06:31:34;;;;;;;14.35;4.32;;;13.10;99.90;;;;;;5118152;27;20027;-65
2022/09/14 06:34:00;;;;;;;19.15;4.72;;;13.20;99.90;;;;;;5112589;28;20028;-66
2022/09/14 06:36:27;;;;;;;10.13;4.40;;;13.20;99.90;;;;;;5110350;28;20081;-66
2022/09/14 06:38:53;;;;;;;8.93;4.20;;;13.30;99.90;;;;;;5110348;28;20553;-68
2022/09/14 06:41:25;;;;;;;5.13;4.60;;;13.30;99.90;;;;;;5126307;27;20035;-64
2022/09/14 06:43:54;;;;;;;7.43;4.38;;;13.40;99.90;;;;;;5130522;27;20043;-65
2022/09/14 06:46:23;;;;;;;28.08;5.53;;;13.40;99.90;;;;;;5126484;27;20139;-67
2022/09/14 06:48:58;;;;;;;10.85;4.93;;;13.50;99.90;;;;;;5110278;28;20101;-67
2022/09/14 06:51:26;;;;;;;7.45;4.80;;;13.50;99.90;;;;;;5128890;27;20035;-66
2022/09/14 06:53:52;;;;;;;7.13;4.82;;;13.60;99.90;;;;;;5127041;27;20119;-68
2022/09/14 06:56:19;;;;;;;10.07;5.20;;;13.60;99.90;;;;;;5113391;27;20054;-66
2022/09/14 06:58:44;;;;;;;5.10;4.25;;;13.60;99.90;;;;;;5117164;27;20063;-67
2022/09/14 07:01:13;;;;;;;10.13;4.50;;;13.60;99.90;;;;;;5110339;28;20132;-65
2022/09/14 07:03:40;;;;;;;9.65;4.68;;;13.70;99.90;;;;;;5109753;28;20176;-65
2022/09/14 07:06:19;;;;;;;7.97;4.30;;;13.70;99.90;;;;;;5106994;27;20464;-65
2022/09/14 07:08:46;;;;;;;21.05;4.88;;;13.80;99.90;;;;;;5107535;28;20046;-65
2022/09/14 07:11:13;;;;;;;21.25;4.32;;;13.90;99.90;;;;;;5108752;28;20073;-67
2022/09/14 07:13:40;;;;;;;5.57;3.65;;;14.00;99.90;;;;;;5129498;27;20099;-65
2022/09/14 07:16:07;;;;;;;8.05;4.00;;;14.00;99.90;;;;;;5107217;28;20043;-66
2022/09/14 07:18:33;;;;;;;6.22;3.35;;;14.10;99.90;;;;;;5108247;28;20120;-66
2022/09/14 07:21:20;;;;;;;7.80;3.83;;;14.10;99.90;;;;;;5108446;28;20046;-67
2022/09/14 07:23:47;;;;;;;6.20;3.30;;;14.20;99.90;;;;;;5109398;28;20483;-65
2022/09/14 07:26:24;;;;;;;7.65;4.00;;;14.20;99.90;;;;;;5108427;27;20070;-65
2022/09/14 07:28:53;;;;;;;9.48;3.78;;;14.30;99.90;;;;;;5110873;28;20034;-65
2022/09/14 07:31:22;;;;;;;6.35;3.22;;;14.40;99.90;;;;;;5128516;27;20110;-64
2022/09/14 07:33:50;;;;;;;7.47;3.40;;;14.50;99.90;;;;;;5097958;28;20052;-67
2022/09/14 07:36:16;;;;;;;11.57;4.03;;;14.70;99.90;;;;;;5110388;27;20141;-67
2022/09/14 07:38:42;;;;;;;9.15;4.15;;;14.80;99.90;;;;;;5110894;27;20154;-65
2022/09/14 07:41:07;;;;;;;9.00;3.78;;;14.90;99.90;;;;;;5099021;28;20033;-65
2022/09/14 07:43:33;;;;;;;7.85;3.90;;;15.00;99.90;;;;;;5107598;27;20067;-66
2022/09/14 07:46:04;;;;;;;7.05;4.00;;;15.10;99.90;;;;;;5123274;27;20157;-69
2022/09/14 07:48:30;;;;;;;6.18;3.63;;;15.20;99.90;;;;;;5108884;28;20485;-68
2022/09/14 07:51:04;;;;;;;5.03;3.38;;;15.30;99.90;;;;;;5129748;27;20038;-66
2022/09/14 07:53:30;;;;;;;6.05;3.13;;;15.30;99.90;;;;;;5129685;27;20046;-69
2022/09/14 07:56:01;;;;;;;7.07;3.25;;;15.40;99.90;;;;;;5109555;28;20032;-67
2022/09/14 07:58:28;;;;;;;7.82;2.95;;;15.40;99.90;;;;;;5128245;27;20038;-66
2022/09/14 08:01:03;;;;;;;5.22;3.13;;;15.50;99.90;;;;;;5129081;27;20088;-67
2022/09/14 08:03:30;;;;;;;4.28;3.35;;;15.60;99.90;;;;;;5128774;27;20360;-66
2022/09/14 08:06:05;;;;;;;13.50;4.13;;;15.70;99.90;;;;;;5114395;27;20059;-64
2022/09/14 08:08:34;;;;;;;5.93;2.85;;;15.70;99.90;;;;;;5114387;27;20039;-66
2022/09/14 08:11:24;;;;;;;9.43;3.10;;;15.70;99.90;;;;;;5109657;28;20036;-65
2022/09/14 08:13:52;;;;;;;6.80;2.40;;;15.80;99.90;;;;;;5110662;27;20075;-68
2022/09/14 08:16:19;;;;;;;9.57;2.40;;;15.80;99.90;;;;;;5130266;27;20042;-67
2022/09/14 08:18:46;;;;;;;3.58;1.60;;;15.90;99.90;;;;;;5130155;27;20409;-68
2022/09/14 08:21:14;;;;;;;6.22;2.00;;;15.90;99.90;;;;;;5118114;27;20054;-66
2022/09/14 08:23:40;;;;;;;4.75;1.30;;;16.00;99.90;;;;;;5119029;28;20485;-66
2022/09/14 08:26:15;;;;;;;2.75;1.30;;;16.10;99.90;;;;;;5109792;28;20550;-66
2022/09/14 08:28:41;;;;;;;5.50;1.40;;;16.10;99.90;;;;;;5126019;28;20525;-67
2022/09/14 08:31:13;;;;;;;9.57;1.60;;;16.20;99.90;;;;;;5124538;28;20070;-65
2022/09/14 08:33:41;;;;;;;5.38;1.15;;;16.20;99.90;;;;;;5124353;28;20031;-67
2022/09/14 08:36:08;;;;;;;8.05;1.33;;;16.30;99.90;;;;;;5106607;28;20043;-68
2022/09/14 08:38:34;;;;;;;4.78;0.98;;;16.30;99.90;;;;;;5107576;28;20039;-67
2022/09/14 08:41:09;;;;;;;5.47;0.95;;;16.30;99.90;;;;;;5107264;28;20032;-65
2022/09/14 08:43:38;;;;;;;3.15;0.85;;;16.40;99.90;;;;;;5118773;28;20043;-66
2022/09/14 08:46:08;;;;;;;3.92;1.00;;;16.50;99.90;;;;;;5125358;27;20040;-67
2022/09/14 08:48:45;;;;;;;12.52;1.20;;;16.60;99.90;;;;;;5117183;27;20418;-66
2022/09/14 08:51:10;;;;;;;5.45;1.10;;;16.70;99.90;;;;;;5132798;27;20047;-66
2022/09/14 08:53:39;;;;;;;1.83;0.90;;;16.70;99.90;;;;;;5127031;27;20035;-67
2022/09/14 08:56:21;;;;;;;5.78;0.93;;;16.80;99.90;;;;;;5131761;27;20486;-66
2022/09/14 08:59:03;;;;;;;6.07;0.90;;;16.80;99.90;;;;;;5120465;27;20042;-68
2022/09/14 09:01:45;;;;;;;5.60;0.88;;;16.90;99.90;;;;;;5111142;28;20031;-65
2022/09/14 09:04:22;;;;;;;3.97;1.15;;;17.00;99.90;;;;;;5120375;27;20507;-67
2022/09/14 09:07:21;;;;;;;3.97;0.70;;;17.00;99.90;;;;;;5123236;27;20493;-67
2022/09/14 09:09:50;;;;;;;7.45;0.80;;;17.10;99.90;;;;;;5109744;27;20114;-68
2022/09/14 09:12:32;;;;;;;3.95;0.70;;;17.20;99.90;;;;;;5132248;27;20027;-66
2022/09/14 09:15:00;;;;;;;4.35;1.02;;;17.30;99.90;;;;;;5110143;28;20043;-68
2022/09/14 09:17:38;;;;;;;7.90;1.00;;;17.40;99.90;;;;;;5132961;27;20417;-66
2022/09/14 09:20:22;;;;;;;3.80;0.98;;;17.50;99.90;;;;;;5131119;27;20058;-64
2022/09/14 09:23:06;;;;;;;4.60;0.85;;;17.60;99.90;;;;;;5116037;27;20110;-68
2022/09/14 09:25:43;;;;;;;8.52;1.98;;;17.80;99.90;;;;;;5113017;27;20118;-67
2022/09/14 09:28:11;;;;;;;4.25;0.70;;;18.00;99.90;;;;;;5098395;28;20118;-67
2022/09/14 09:30:40;;;;;;;8.45;0.70;;;18.30;99.90;;;;;;5112369;28;20100;-66
2022/09/14 09:33:06;;;;;;;4.32;0.70;;;18.60;99.90;;;;;;5131998;27;20045;-66
2022/09/14 09:35:32;;;;;;;3.03;0.55;;;18.90;99.90;;;;;;5132563;27;20058;-65
2022/09/14 09:37:58;;;;;;;4.68;0.60;;;19.10;99.90;;;;;;5118807;27;20122;-67
2022/09/14 09:41:02;;;;;;;2.10;0.52;;;19.30;99.90;;;;;;5121265;27;20036;-66
2022/09/14 09:43:28;;;;;;;3.65;0.60;;;19.30;99.90;;;;;;5112336;28;20047;-67
2022/09/14 09:45:58;;;;;;;5.18;0.77;;;19.30;99.90;;;;;;5124644;27;20043;-66
2022/09/14 09:48:38;;;;;;;2.53;0.52;;;19.20;99.90;;;;;;5119380;27;20052;-68
2022/09/14 09:51:14;;;;;;;3.22;0.70;;;19.40;99.90;;;;;;5124124;27;20043;-66
2022/09/14 09:53:53;;;;;;;2.95;0.90;;;19.50;99.90;;;;;;5129951;27;20031;-68
2022/09/14 09:56:22;;;;;;;6.00;1.30;;;19.80;99.90;;;;;;5121899;27;20453;-66
2022/09/14 09:58:50;;;;;;;3.85;0.80;;;20.00;99.90;;;;;;5113486;27;20063;-67
2022/09/14 10:01:31;;;;;;;2.63;0.70;;;20.20;99.90;;;;;;5132004;27;20060;-66
2022/09/14 10:04:07;;;;;;;3.65;0.75;;;20.40;99.90;;;;;;5118846;27;20093;-67
2022/09/14 10:06:44;;;;;;;1.92;0.32;;;20.70;99.90;;;;;;5113157;28;20036;-67
2022/09/14 10:09:28;;;;;;;3.33;0.60;;;20.70;99.90;;;;;;5113622;27;20078;-67
2022/09/14 10:11:59;;;;;;;3.15;0.38;;;20.70;99.90;;;;;;5127765;27;20508;-68
2022/09/14 10:14:36;;;;;;;4.07;0.82;;;20.50;99.90;;;;;;5107752;28;20106;-69
2022/09/14 10:17:22;;;;;;;2.05;0.50;;;20.30;99.90;;;;;;5093438;28;20415;-66
2022/09/14 10:19:48;;;;;;;1.63;0.50;;;20.10;99.90;;;;;;5108742;28;20119;-67
2022/09/14 10:22:16;;;;;;;3.47;0.80;;;20.00;99.90;;;;;;5130276;27;20039;-66
2022/09/14 10:24:58;;;;;;;3.60;0.70;;;19.90;99.90;;;;;;5110371;28;20047;-67
2022/09/14 10:27:40;;;;;;;4.30;0.60;;;19.90;99.90;;;;;;5116868;27;20040;-66
2022/09/14 10:30:20;;;;;;;6.63;0.70;;;20.10;99.90;;;;;;5113709;27;20043;-66
2022/09/14 10:33:00;;;;;;;2.25;0.40;;;20.50;99.90;;;;;;5128143;27;20051;-65
2022/09/14 10:35:42;;;;;;;1.52;0.50;;;20.60;99.90;;;;;;5109602;28;20044;-65
2022/09/14 10:38:11;;;;;;;6.03;0.50;;;20.70;99.90;;;;;;5127773;27;20576;-66
2022/09/14 10:40:42;;;;;;;2.72;0.57;;;20.40;99.90;;;;;;5129327;27;20095;-66
2022/09/14 10:43:23;;;;;;;6.13;0.50;;;20.10;99.90;;;;;;5114421;27;20100;-68
2022/09/14 10:45:51;;;;;;;2.30;0.30;;;20.00;99.90;;;;;;5116439;27;20118;-68
2022/09/14 10:48:24;;;;;;;5.75;1.63;;;20.00;99.90;;;;;;5106774;27;20048;-66
2022/09/14 10:50:57;;;;;;;4.65;1.10;;;19.90;99.90;;;;;;5106977;27;20069;-68
2022/09/14 10:53:40;;;;;;;3.50;0.60;;;19.80;99.90;;;;;;5114809;27;20130;-69
2022/09/14 10:56:18;;;;;;;2.97;1.17;;;19.80;99.90;;;;;;5117681;27;20080;-66
2022/09/14 10:59:08;;;;;;;2.15;0.90;;;19.60;99.90;;;;;;5107141;28;20035;-66
2022/09/14 11:01:52;;;;;;;2.45;0.73;;;19.50;99.90;;;;;;5111010;27;20035;-66
2022/09/14 11:04:42;;;;;;;1.35;0.38;;;19.50;99.90;;;;;;5115123;27;20446;-67
2022/09/14 11:07:34;;;;;;;2.38;0.40;;;19.40;99.90;;;;;;5117588;27;20048;-66
2022/09/14 11:10:15;;;;;;;4.97;0.60;;;19.50;99.90;;;;;;5110111;27;20161;-69
2022/09/14 11:12:57;;;;;;;3.95;0.50;;;19.40;99.90;;;;;;5119559;27;20051;-66
2022/09/14 11:15:51;;;;;;;3.78;0.40;;;19.50;99.90;;;;;;5130735;27;20039;-69
2022/09/14 11:18:52;;;;;;;3.35;0.60;;;19.60;99.90;;;;;;5090853;28;20043;-66
2022/09/14 11:21:17;;;;;;;2.47;0.40;;;19.60;99.90;;;;;;5123870;27;20065;-64
2022/09/14 11:23:52;;;;;;;3.45;0.60;;;19.80;99.90;;;;;;5113085;27;20560;-65
2022/09/14 11:26:38;;;;;;;3.10;0.50;;;19.80;99.90;;;;;;5130491;27;20039;-68
2022/09/14 11:29:27;;;;;;;4.10;0.82;;;19.80;99.90;;;;;;5113004;27;20470;-68
2022/09/14 11:32:24;;;;;;;2.45;0.52;;;19.80;99.90;;;;;;5011955;28;20085;-65
2022/09/14 11:35:01;;;;;;;4.10;0.60;;;19.80;99.90;;;;;;5007633;28;20073;-68
2022/09/14 11:37:37;;;;;;;4.30;0.60;;;20.00;99.90;;;;;;5012313;28;20045;-67
2022/09/14 11:40:13;;;;;;;4.47;0.70;;;20.20;99.90;;;;;;5009486;28;20048;-68
2022/09/14 11:42:56;;;;;;;5.82;0.73;;;20.60;99.90;;;;;;5012449;28;20124;-66
2022/09/14 11:45:30;;;;;;;4.43;0.60;;;21.00;99.90;;;;;;5012019;28;20044;-67
2022/09/14 11:48:30;;;;;;;6.13;0.80;;;21.40;99.90;;;;;;4995464;28;20051;-67
2022/09/14 11:51:12;;;;;;;1.98;0.70;;;21.70;99.90;;;;;;4950836;28;20074;-68
2022/09/14 11:53:41;;;;;;;2.88;0.60;;;21.70;99.90;;;;;;4953682;28;20049;-66
2022/09/14 11:56:22;;;;;;;3.67;0.70;;;21.70;99.80;;;;;;4953737;28;20145;-67
2022/09/14 11:58:48;;;;;;;4.97;0.80;;;21.70;98.80;;;;;;4953668;28;20042;-66
2022/09/14 12:01:28;;;;;;;1.33;0.30;;;21.80;98.80;;;;;;4952697;28;20121;-67
2022/09/14 12:03:58;;;;;;;3.92;0.70;;;21.80;98.40;;;;;;4953305;28;20405;-66
2022/09/14 12:06:30;;;;;;;2.08;0.55;;;21.80;98.60;;;;;;4953608;28;20081;-68
2022/09/14 12:09:17;;;;;;;2.17;0.45;;;21.80;98.30;;;;;;4994092;28;20492;-68
2022/09/14 12:11:44;;;;;;;2.40;0.50;;;21.60;97.90;;;;;;5031194;28;20075;-68
2022/09/14 12:14:23;;;;;;;3.08;0.60;;;21.40;98.10;;;;;;5047716;28;20076;-66
2022/09/14 12:17:13;;;;;;;2.00;0.70;;;21.00;97.50;;;;;;5015031;28;20037;-68
2022/09/14 12:19:40;;;;;;;2.15;0.65;;;21.00;98.40;;;;;;5031252;28;20056;-66
2022/09/14 12:22:32;;;;;;;4.43;0.65;;;21.00;98.10;;;;;;5030968;28;20708;-65
2022/09/14 12:25:09;;;;;;;2.35;0.90;;;21.00;97.40;;;;;;5031608;28;20392;-67
2022/09/14 12:27:40;;;;;;;1.02;0.55;;;21.00;98.00;;;;;;5062741;28;20040;-65
2022/09/14 12:30:54;;;;;;;4.22;0.82;;;21.00;97.80;;;;;;5127334;28;20039;-67
2022/09/14 12:33:32;;;;;;;18.95;2.53;;;21.10;98.20;;;;;;5104363;28;20044;-67
2022/09/14 12:36:31;;;;;;;7.10;0.80;;;21.10;97.80;;;;;;5121459;28;20047;-68
2022/09/14 12:38:57;;;;;;;4.43;0.60;;;21.20;97.90;;;;;;5109865;28;20126;-67
2022/09/14 12:41:23;;;;;;;3.97;0.73;;;21.20;97.90;;;;;;5109526;28;20055;-70
2022/09/14 12:43:49;;;;;;;2.95;0.70;;;21.10;97.80;;;;;;5117784;28;20377;-66
2022/09/14 12:46:21;;;;;;;13.40;0.90;;;21.00;97.80;;;;;;5108988;28;20032;-65
2022/09/14 12:51:31;;;;;;;4.00;0.60;;;20.80;97.90;;;;;;5107945;28;20446;-66
2022/09/14 12:54:08;;;;;;;4.35;0.88;;;20.70;97.70;;;;;;5123885;28;20501;-67
2022/09/14 12:56:48;;;;;;;6.72;0.80;;;20.80;98.00;;;;;;5106607;28;20071;-68
2022/09/14 12:59:32;;;;;;;6.90;0.80;;;20.90;98.20;;;;;;5110469;28;20421;-68
2022/09/14 13:02:01;;;;;;;3.30;0.75;;;20.80;97.80;;;;;;5124535;28;20083;-68
2022/09/14 13:04:32;;;;;;;2.83;0.50;;;20.80;98.30;;;;;;5129593;27;20039;-68
2022/09/14 13:07:01;;;;;;;3.88;0.57;;;20.70;98.70;;;;;;5111340;28;20046;-69
2022/09/14 13:09:29;;;;;;;7.32;0.70;;;20.60;99.10;;;;;;5109251;28;20079;-67
2022/09/14 13:12:04;;;;;;;4.38;0.85;;;20.50;99.40;;;;;;5129351;28;20078;-67
2022/09/14 13:14:33;;;;;;;3.33;0.60;;;20.30;98.90;;;;;;5129434;28;20050;-66